Time;durP1;ratioP1;P1;durP2;ratioP2;P2;SDS_P1;SDS_P2;PMS_P1;PMS_P2;Temp;Humidity;BMP_temperature;BMP_pressure;BME280_temperature;BME280_humidity;BME280_pressure;Samples;Min_cycle;Max_cycle;Signal;HPM_P1;HPM_P2
2021/04/08 00:00:51;;;;;;;8.68;6.80;;;;;;;0.05;83.81;98430.05;1707354;82;21205;-55
2021/04/08 00:03:19;;;;;;;9.20;6.33;;;;;;;0.04;83.89;98433.61;1741061;79;21037;-56
2021/04/08 00:05:47;;;;;;;9.50;7.15;;;;;;;0.03;84.10;98435.06;1739867;80;20979;-56
2021/04/08 00:08:15;;;;;;;7.00;6.05;;;;;;;-0.01;84.19;98434.00;1770725;80;21148;-54
2021/04/08 00:10:44;;;;;;;6.90;6.22;;;;;;;-0.05;84.34;98440.43;1769901;79;21009;-57
2021/04/08 00:13:12;;;;;;;6.45;5.17;;;;;;;-0.07;84.58;98434.98;1747833;80;21211;-56
2021/04/08 00:15:39;;;;;;;7.85;6.40;;;;;;;-0.08;84.80;98432.84;1763160;80;21148;-55
2021/04/08 00:18:07;;;;;;;6.22;5.62;;;;;;;-0.08;84.83;98440.69;1772431;79;21125;-55
2021/04/08 00:20:34;;;;;;;7.28;5.53;;;;;;;-0.10;84.87;98434.77;1713291;82;21081;-55
2021/04/08 00:23:02;;;;;;;7.62;5.75;;;;;;;-0.09;84.92;98440.83;1713210;83;21373;-54
2021/04/08 00:25:30;;;;;;;7.03;6.12;;;;;;;-0.09;85.00;98440.36;1694930;82;21055;-60
2021/04/08 00:27:58;;;;;;;9.58;5.90;;;;;;;-0.10;85.14;98446.53;1691939;82;21042;-57
2021/04/08 00:30:26;;;;;;;8.03;5.65;;;;;;;-0.12;85.19;98443.69;1685835;82;20957;-57
2021/04/08 00:32:53;;;;;;;9.38;6.33;;;;;;;-0.13;85.27;98449.39;1685830;82;21123;-57
2021/04/08 00:35:22;;;;;;;5.90;5.40;;;;;;;-0.17;85.27;98451.09;1682128;83;21489;-59
2021/04/08 00:37:50;;;;;;;8.75;5.95;;;;;;;-0.19;85.36;98459.08;1680495;84;21264;-57
2021/04/08 00:40:18;;;;;;;6.47;5.37;;;;;;;-0.21;85.57;98462.27;1675112;84;20956;-54
2021/04/08 00:42:45;;;;;;;6.20;5.60;;;;;;;-0.25;85.77;98458.27;1664549;82;21092;-60
2021/04/08 00:45:13;;;;;;;6.20;5.05;;;;;;;-0.26;85.64;98463.64;1679515;82;21132;-55
2021/04/08 00:47:40;;;;;;;7.37;5.67;;;;;;;-0.27;85.76;98470.64;1670787;82;21373;-57
2021/04/08 00:50:11;;;;;;;6.15;5.55;;;;;;;-0.28;85.71;98463.75;1669615;82;21227;-56
2021/04/08 00:52:39;;;;;;;7.05;5.80;;;;;;;-0.27;85.65;98474.56;1646533;84;21222;-57
2021/04/08 00:55:08;;;;;;;7.85;6.10;;;;;;;-0.26;85.58;98472.78;1703776;82;21123;-57
2021/04/08 00:57:35;;;;;;;6.10;5.50;;;;;;;-0.27;85.61;98474.56;1726335;81;21002;-56
2021/04/08 01:00:06;;;;;;;7.37;5.62;;;;;;;-0.25;85.65;98474.42;1724348;81;21216;-56
2021/04/08 01:02:34;;;;;;;8.10;5.72;;;;;;;-0.23;85.66;98478.56;1724003;81;21132;-56
2021/04/08 01:05:02;;;;;;;6.60;5.65;;;;;;;-0.22;85.67;98482.85;1723992;81;21098;-56
2021/04/08 01:07:33;;;;;;;6.37;4.87;;;;;;;-0.19;85.65;98483.08;1723528;81;20994;-56
2021/04/08 01:10:04;;;;;;;6.97;5.72;;;;;;;-0.16;85.58;98491.98;1736149;81;21098;-56
2021/04/08 01:12:34;;;;;;;8.03;5.42;;;;;;;-0.17;85.39;98491.61;1731188;81;20981;-56
2021/04/08 01:15:03;;;;;;;6.25;5.37;;;;;;;-0.19;85.35;98483.91;1745252;81;21196;-59
2021/04/08 01:18:10;;;;;;;5.10;4.60;;;;;;;-0.14;85.25;98492.20;1709784;81;21116;-56
2021/04/08 01:21:13;;;;;;;8.53;5.25;;;;;;;-0.11;85.04;98488.03;1723031;81;21130;-58
2021/04/08 01:23:55;;;;;;;7.03;6.15;;;;;;;-0.11;84.86;98495.88;1737774;81;21126;-55
2021/04/08 01:27:11;;;;;;;7.53;5.97;;;;;;;-0.13;84.77;98496.95;1733497;79;21363;-54
2021/04/08 01:30:21;;;;;;;6.03;5.42;;;;;;;-0.17;84.68;98504.21;1755283;79;21609;-55
2021/04/08 01:32:53;;;;;;;7.30;5.67;;;;;;;-0.20;84.75;98501.02;1754545;81;21050;-59
2021/04/08 01:35:25;;;;;;;9.08;6.40;;;;;;;-0.24;84.72;98506.16;1749727;79;21098;-57
2021/04/08 01:38:14;;;;;;;6.05;5.40;;;;;;;-0.27;84.66;98511.16;1759449;79;21141;-57
2021/04/08 01:40:43;;;;;;;6.10;5.50;;;;;;;-0.31;84.67;98509.73;1760514;79;21211;-55
2021/04/08 01:43:11;;;;;;;6.60;5.33;;;;;;;-0.35;84.69;98520.10;1751265;79;21581;-55
2021/04/08 01:45:38;;;;;;;11.53;6.62;;;;;;;-0.37;84.81;98519.88;1763872;80;21069;-55
2021/04/08 01:48:07;;;;;;;6.33;5.55;;;;;;;-0.41;84.85;98520.59;1767390;79;21563;-57
2021/04/08 01:50:35;;;;;;;6.28;5.35;;;;;;;-0.45;84.94;98524.89;1751944;79;21451;-54
2021/04/08 01:53:03;;;;;;;7.53;5.67;;;;;;;-0.50;85.12;98527.89;1751737;79;21398;-54
2021/04/08 01:55:32;;;;;;;6.30;5.62;;;;;;;-0.53;85.24;98526.82;1775692;79;21139;-55
2021/04/08 01:57:59;;;;;;;7.22;5.80;;;;;;;-0.53;85.28;98529.44;1746862;80;21224;-58
2021/04/08 02:00:27;;;;;;;6.75;5.67;;;;;;;-0.52;85.34;98534.19;1754286;79;21109;-56
2021/04/08 02:02:56;;;;;;;8.70;6.35;;;;;;;-0.48;85.37;98536.89;1751794;79;21076;-55
2021/04/08 02:05:25;;;;;;;6.62;5.50;;;;;;;-0.45;85.38;98544.02;1754250;79;21189;-55
2021/04/08 02:07:55;;;;;;;8.08;5.55;;;;;;;-0.41;85.34;98544.11;1772054;79;21187;-55
2021/04/08 02:10:23;;;;;;;8.83;5.78;;;;;;;-0.39;85.24;98541.39;1762735;79;21026;-55
2021/04/08 02:12:50;;;;;;;12.18;7.58;;;;;;;-0.38;85.36;98548.26;1756167;80;21582;-55
2021/04/08 02:15:19;;;;;;;9.38;7.03;;;;;;;-0.37;85.32;98550.77;1767484;80;20943;-55
2021/04/08 02:17:49;;;;;;;8.80;6.80;;;;;;;-0.35;85.36;98551.94;1758966;79;21387;-55
2021/04/08 02:20:19;;;;;;;11.00;7.53;;;;;;;-0.32;85.40;98560.36;1749813;80;21555;-56
2021/04/08 02:22:50;;;;;;;7.47;6.45;;;;;;;-0.28;85.35;98557.84;1715128;82;21121;-56
2021/04/08 02:25:19;;;;;;;9.28;7.47;;;;;;;-0.25;85.25;98551.53;1751757;79;21056;-55
2021/04/08 02:27:46;;;;;;;7.60;6.83;;;;;;;-0.22;85.24;98559.97;1751666;79;21143;-55
2021/04/08 02:30:16;;;;;;;7.90;6.20;;;;;;;-0.20;85.14;98558.05;1760171;79;21390;-55
2021/04/08 02:32:44;;;;;;;6.65;5.95;;;;;;;-0.16;85.08;98564.67;1751737;79;21499;-57
2021/04/08 02:35:15;;;;;;;8.58;5.92;;;;;;;-0.10;84.95;98571.19;1751622;79;21132;-55
2021/04/08 02:37:47;;;;;;;6.97;5.67;;;;;;;-0.11;84.77;98566.94;1748210;79;21128;-57
2021/04/08 02:40:18;;;;;;;10.00;7.53;;;;;;;-0.11;84.73;98568.24;1760292;79;21068;-56
2021/04/08 02:42:47;;;;;;;12.47;7.22;;;;;;;-0.11;84.72;98572.16;1751692;79;21387;-57
2021/04/08 02:45:15;;;;;;;8.38;6.80;;;;;;;-0.08;84.68;98572.72;1751605;79;21073;-56
2021/04/08 02:47:44;;;;;;;9.10;7.30;;;;;;;-0.08;84.59;98568.00;1751546;79;20950;-59
2021/04/08 02:50:13;;;;;;;10.13;6.92;;;;;;;-0.06;84.59;98575.23;1753648;79;21133;-56
2021/04/08 02:53:04;;;;;;;6.42;5.72;;;;;;;-0.06;84.51;98576.06;1751747;79;21555;-56
2021/04/08 02:55:48;;;;;;;7.50;6.22;;;;;;;-0.05;84.47;98575.09;1666497;82;21396;-55
2021/04/08 02:58:17;;;;;;;8.58;7.10;;;;;;;-0.05;84.46;98578.17;1756929;80;21448;-56
2021/04/08 03:00:53;;;;;;;13.22;7.87;;;;;;;-0.12;84.64;98580.48;1758897;79;21534;-56
2021/04/08 03:03:26;;;;;;;10.08;7.75;;;;;;;-0.18;84.82;98580.97;1751816;79;20993;-55
2021/04/08 03:05:53;;;;;;;11.18;8.73;;;;;;;-0.22;84.92;98586.11;1751726;79;21148;-57
2021/04/08 03:08:21;;;;;;;14.00;9.18;;;;;;;-0.22;85.03;98591.34;1781657;79;21367;-58
2021/04/08 03:10:48;;;;;;;16.93;9.58;;;;;;;-0.23;85.30;98586.21;1763660;79;21502;-56
2021/04/08 03:13:16;;;;;;;12.63;8.63;;;;;;;-0.22;85.41;98595.73;1756011;79;20922;-56
2021/04/08 03:15:45;;;;;;;13.18;8.68;;;;;;;-0.21;85.54;98592.98;1758382;79;21134;-56
2021/04/08 03:18:17;;;;;;;15.88;9.93;;;;;;;-0.21;85.74;98592.98;1753836;79;21124;-56
2021/04/08 03:20:53;;;;;;;15.95;11.35;;;;;;;-0.17;85.83;98595.70;1754175;79;21562;-55
2021/04/08 03:23:22;;;;;;;13.95;10.35;;;;;;;-0.13;85.82;98597.11;1760346;79;21017;-56
2021/04/08 03:25:52;;;;;;;17.27;10.78;;;;;;;-0.11;85.80;98599.14;1763907;79;21134;-59
2021/04/08 03:28:19;;;;;;;16.50;10.03;;;;;;;-0.08;85.76;98605.91;1751877;79;21076;-59
2021/04/08 03:30:47;;;;;;;17.25;10.40;;;;;;;-0.06;85.65;98607.44;1770733;79;21155;-58
2021/04/08 03:33:16;;;;;;;20.30;11.28;;;;;;;-0.05;85.54;98609.08;1756521;79;21383;-56
2021/04/08 03:35:46;;;;;;;20.75;10.68;;;;;;;-0.05;85.40;98610.39;1751751;79;21053;-57
2021/04/08 03:38:18;;;;;;;26.82;13.05;;;;;;;-0.06;85.39;98617.90;1751850;79;21192;-59
2021/04/08 03:40:46;;;;;;;27.93;12.47;;;;;;;-0.06;85.33;98616.59;1759970;79;21093;-56
2021/04/08 03:43:14;;;;;;;22.52;11.63;;;;;;;-0.05;85.35;98616.92;1773079;79;21140;-56
2021/04/08 03:45:42;;;;;;;21.62;10.88;;;;;;;-0.07;85.24;98611.47;1751818;79;21154;-58
2021/04/08 03:48:13;;;;;;;25.57;10.85;;;;;;;-0.07;85.26;98616.70;1773226;79;21178;-57
2021/04/08 03:50:42;;;;;;;21.52;10.40;;;;;;;-0.09;85.22;98618.14;1772419;79;21085;-56
2021/04/08 03:53:10;;;;;;;25.68;11.43;;;;;;;-0.11;85.26;98617.45;1754471;79;21103;-56
2021/04/08 03:55:40;;;;;;;26.45;11.97;;;;;;;-0.14;85.38;98617.69;1765694;79;21132;-55
2021/04/08 03:58:09;;;;;;;30.72;11.18;;;;;;;-0.13;85.36;98632.40;1772698;79;21473;-56
2021/04/08 04:00:36;;;;;;;24.25;10.38;;;;;;;-0.13;85.32;98629.79;1757118;79;21483;-56
2021/04/08 04:03:08;;;;;;;25.92;12.53;;;;;;;-0.15;85.25;98627.78;1754587;79;21171;-56
2021/04/08 04:05:38;;;;;;;20.52;11.03;;;;;;;-0.18;85.19;98635.87;1759796;79;21115;-56
2021/04/08 04:08:05;;;;;;;15.93;9.55;;;;;;;-0.22;85.19;98635.77;1754912;79;21176;-54
2021/04/08 04:10:37;;;;;;;19.25;10.25;;;;;;;-0.27;85.32;98633.17;1774479;79;21285;-57
2021/04/08 04:13:06;;;;;;;24.52;12.23;;;;;;;-0.31;85.41;98640.89;1712434;82;21221;-58
2021/04/08 04:15:35;;;;;;;19.70;11.63;;;;;;;-0.35;85.65;98641.63;1762370;80;22048;-56
2021/04/08 04:18:06;;;;;;;23.20;12.30;;;;;;;-0.35;85.68;98642.94;1763890;79;21231;-58
2021/04/08 04:20:35;;;;;;;20.50;11.90;;;;;;;-0.31;86.03;98647.42;1751203;79;21207;-57
2021/04/08 04:23:03;;;;;;;23.80;12.18;;;;;;;-0.17;86.34;98647.16;1758878;79;21488;-56
2021/04/08 04:25:31;;;;;;;20.27;11.08;;;;;;;0.08;86.41;98646.02;1758187;79;21637;-56
2021/04/08 04:27:59;;;;;;;19.27;10.50;;;;;;;0.37;85.86;98648.37;1721147;80;21011;-57
2021/04/08 04:30:28;;;;;;;22.60;10.48;;;;;;;0.67;85.35;98651.55;1757232;80;21160;-57
2021/04/08 04:32:56;;;;;;;21.10;12.18;;;;;;;1.03;84.66;98649.28;1760200;79;21121;-56
2021/04/08 04:35:24;;;;;;;22.20;12.37;;;;;;;1.40;83.25;98654.81;1763695;79;21275;-56
2021/04/08 04:37:51;;;;;;;18.15;10.45;;;;;;;1.68;81.85;98653.23;1759797;79;21153;-59
2021/04/08 04:40:21;;;;;;;24.80;12.95;;;;;;;1.84;80.54;98653.06;1724609;81;21095;-57
2021/04/08 04:42:48;;;;;;;18.62;10.32;;;;;;;1.96;79.33;98662.94;1716859;82;21054;-57
2021/04/08 04:45:16;;;;;;;13.72;10.25;;;;;;;2.00;78.77;98660.41;1778137;79;21124;-57
2021/04/08 04:47:44;;;;;;;17.15;10.82;;;;;;;2.05;77.92;98660.83;1759320;79;22172;-55
2021/04/08 04:50:13;;;;;;;19.02;11.05;;;;;;;2.07;77.61;98656.27;1750356;79;21187;-55
2021/04/08 04:52:41;;;;;;;16.32;10.35;;;;;;;2.08;77.02;98663.18;1746292;79;21219;-56
2021/04/08 04:55:10;;;;;;;17.85;10.82;;;;;;;2.00;76.55;98664.34;1760315;80;21297;-54
2021/04/08 04:57:37;;;;;;;16.37;10.60;;;;;;;1.83;76.79;98667.61;1765342;79;21117;-55
2021/04/08 05:00:06;;;;;;;13.48;10.23;;;;;;;1.74;77.29;98673.68;1753700;80;21414;-56
2021/04/08 05:02:34;;;;;;;11.80;10.03;;;;;;;1.66;77.34;98675.66;1756782;80;21126;-59
2021/04/08 05:05:02;;;;;;;15.38;10.72;;;;;;;1.64;77.95;98678.07;1783218;79;21202;-58
2021/04/08 05:07:29;;;;;;;14.65;10.65;;;;;;;1.84;78.32;98678.46;1715384;82;21216;-57
2021/04/08 05:09:56;;;;;;;16.50;11.40;;;;;;;2.17;77.92;98674.63;1774354;79;21489;-56
2021/04/08 05:12:24;;;;;;;16.05;10.35;;;;;;;2.59;77.29;98682.59;1768057;80;21372;-57
2021/04/08 05:14:52;;;;;;;11.10;8.85;;;;;;;3.01;75.61;98675.19;1743904;79;21179;-56
2021/04/08 05:17:20;;;;;;;14.58;10.78;;;;;;;3.28;74.21;98673.95;1765257;80;21220;-55
2021/04/08 05:19:47;;;;;;;16.32;11.20;;;;;;;3.49;73.25;98675.87;1744360;79;21081;-57
2021/04/08 05:22:15;;;;;;;12.70;9.55;;;;;;;3.58;71.77;98676.78;1738387;79;21156;-55
2021/04/08 05:24:43;;;;;;;15.13;10.15;;;;;;;3.52;71.20;98680.02;1754449;79;21381;-55
2021/04/08 05:27:10;;;;;;;12.55;10.32;;;;;;;3.44;71.14;98679.91;1743576;79;21617;-55
2021/04/08 05:29:40;;;;;;;15.28;11.68;;;;;;;3.36;71.04;98674.54;1759349;79;21061;-55
2021/04/08 05:32:07;;;;;;;14.38;10.50;;;;;;;3.22;71.23;98685.03;1749034;79;20994;-55
2021/04/08 05:34:36;;;;;;;15.53;11.30;;;;;;;3.13;71.42;98688.50;1745144;79;21172;-56
2021/04/08 05:37:03;;;;;;;17.40;11.80;;;;;;;3.06;71.64;98688.73;1748338;79;21378;-57
2021/04/08 05:39:32;;;;;;;14.43;11.73;;;;;;;3.00;71.93;98694.55;1737588;81;21198;-58
2021/04/08 05:41:59;;;;;;;15.00;12.00;;;;;;;2.92;72.31;98697.08;1733272;81;21008;-55
2021/04/08 05:44:26;;;;;;;16.95;12.23;;;;;;;2.86;72.50;98700.26;1740722;81;21235;-61
2021/04/08 05:46:54;;;;;;;17.80;12.65;;;;;;;2.76;72.71;98710.78;1740234;81;21609;-53
2021/04/08 05:49:22;;;;;;;16.15;11.18;;;;;;;2.69;73.01;98722.80;1752844;79;21209;-54
2021/04/08 05:51:50;;;;;;;16.00;10.88;;;;;;;2.64;73.02;98718.92;1748447;81;21705;-54
2021/04/08 05:54:17;;;;;;;16.87;11.57;;;;;;;2.63;73.42;98719.44;1744551;81;21081;-56
2021/04/08 05:56:45;;;;;;;17.23;12.10;;;;;;;2.63;73.54;98723.38;1744849;81;21152;-55
2021/04/08 05:59:12;;;;;;;19.92;13.25;;;;;;;2.65;73.83;98725.37;1750954;81;21138;-56
2021/04/08 06:01:41;;;;;;;18.87;12.65;;;;;;;2.70;73.51;98732.83;1742692;81;21836;-56
2021/04/08 06:04:08;;;;;;;17.42;13.08;;;;;;;2.66;73.36;98732.77;1742310;81;21140;-54
2021/04/08 06:06:36;;;;;;;15.93;12.15;;;;;;;2.68;73.63;98730.34;1745454;81;21150;-55
2021/04/08 06:09:05;;;;;;;20.00;12.88;;;;;;;2.78;73.68;98724.60;1744712;81;21120;-54
2021/04/08 06:11:32;;;;;;;15.23;12.30;;;;;;;2.83;73.18;98725.48;1744157;81;21204;-57
2021/04/08 06:14:00;;;;;;;18.80;12.47;;;;;;;2.83;72.95;98722.86;1741500;81;21305;-56
2021/04/08 06:16:27;;;;;;;16.02;12.05;;;;;;;2.83;73.11;98725.02;1745197;81;21224;-53
2021/04/08 06:18:56;;;;;;;15.28;12.13;;;;;;;2.94;73.23;98730.60;1744883;81;21637;-56
2021/04/08 06:21:24;;;;;;;24.40;14.83;;;;;;;3.11;73.17;98725.92;1746907;81;21586;-56
2021/04/08 06:23:52;;;;;;;21.35;14.25;;;;;;;3.29;72.20;98722.07;1743564;81;21179;-56
2021/04/08 06:26:20;;;;;;;16.90;13.93;;;;;;;3.59;72.21;98721.37;1744451;81;21383;-54
2021/04/08 06:28:48;;;;;;;13.58;10.90;;;;;;;4.02;70.82;98721.20;1746291;81;21125;-55
2021/04/08 06:31:18;;;;;;;14.13;12.03;;;;;;;4.41;69.62;98731.03;1735854;81;22185;-56
2021/04/08 06:33:45;;;;;;;18.17;11.20;;;;;;;4.83;68.35;98728.11;1744071;81;21091;-58
2021/04/08 06:36:14;;;;;;;15.83;12.00;;;;;;;5.21;67.60;98730.88;1741340;81;21183;-55
2021/04/08 06:38:41;;;;;;;13.48;11.08;;;;;;;5.51;65.44;98735.68;1750133;79;21403;-55
2021/04/08 06:41:09;;;;;;;10.98;9.80;;;;;;;5.60;64.71;98734.76;1748820;80;21060;-55
2021/04/08 06:43:39;;;;;;;18.35;12.33;;;;;;;5.80;65.20;98735.34;1752791;79;21001;-54
2021/04/08 06:46:09;;;;;;;15.63;11.97;;;;;;;5.97;64.28;98737.91;1755385;80;21104;-56
2021/04/08 06:48:44;;;;;;;17.62;13.18;;;;;;;6.04;63.54;98747.36;1757204;79;21037;-54
2021/04/08 06:51:16;;;;;;;15.20;12.47;;;;;;;5.90;63.30;98750.10;1756163;79;21387;-56
2021/04/08 06:53:44;;;;;;;15.25;11.78;;;;;;;5.92;63.29;98749.45;1757470;79;21583;-56
2021/04/08 06:56:14;;;;;;;15.93;12.28;;;;;;;6.05;62.39;98749.83;1753498;79;21025;-54
2021/04/08 06:58:42;;;;;;;14.83;11.93;;;;;;;6.25;62.12;98753.05;1752694;79;21227;-57
2021/04/08 07:01:12;;;;;;;15.88;10.43;;;;;;;6.40;61.95;98757.21;1744940;79;21160;-57
2021/04/08 07:03:40;;;;;;;15.03;9.95;;;;;;;6.56;61.71;98748.84;1754342;79;22365;-56
2021/04/08 07:06:08;;;;;;;16.75;12.05;;;;;;;6.66;61.25;98756.13;1752608;79;21108;-55
2021/04/08 07:08:36;;;;;;;15.28;11.05;;;;;;;6.70;60.30;98761.40;1779967;79;21001;-56
2021/04/08 07:11:03;;;;;;;15.83;12.20;;;;;;;6.53;59.70;98768.98;1712792;82;21600;-55
2021/04/08 07:13:32;;;;;;;16.75;12.35;;;;;;;6.19;60.23;98775.65;1755513;79;21112;-55
2021/04/08 07:16:00;;;;;;;13.58;10.25;;;;;;;5.87;61.17;98773.34;1753621;79;21380;-55
2021/04/08 07:18:28;;;;;;;14.73;12.07;;;;;;;5.73;61.76;98777.38;1750519;79;21637;-56
2021/04/08 07:20:56;;;;;;;13.83;11.15;;;;;;;5.59;61.90;98781.91;1748808;80;21633;-55
2021/04/08 07:23:24;;;;;;;14.70;11.63;;;;;;;5.41;62.17;98778.48;1755666;79;21179;-58
2021/04/08 07:26:08;;;;;;;13.45;11.48;;;;;;;5.25;62.52;98791.55;1753304;79;21144;-55
2021/04/08 07:28:43;;;;;;;13.80;11.22;;;;;;;5.15;63.05;98786.38;1763883;79;22285;-56
2021/04/08 07:31:29;;;;;;;14.98;12.40;;;;;;;5.35;63.90;98792.28;1761158;79;21183;-55
2021/04/08 07:33:59;;;;;;;11.40;10.15;;;;;;;5.67;63.12;98789.87;1744463;79;21182;-55
2021/04/08 07:36:36;;;;;;;12.98;11.22;;;;;;;5.96;62.49;98798.81;1769954;79;21216;-55
2021/04/08 07:39:16;;;;;;;18.17;13.18;;;;;;;6.16;62.16;98806.33;1708241;82;21142;-56
2021/04/08 07:41:44;;;;;;;14.10;11.73;;;;;;;6.35;61.51;98792.05;1775663;79;21378;-56
2021/04/08 07:44:12;;;;;;;19.00;11.48;;;;;;;6.45;60.65;98809.08;1754957;79;21160;-56
2021/04/08 07:46:42;;;;;;;15.03;12.13;;;;;;;6.54;60.60;98802.84;1746822;79;21031;-55
2021/04/08 07:49:29;;;;;;;17.35;11.33;;;;;;;6.76;60.03;98804.37;1766387;79;21227;-56
2021/04/08 07:52:02;;;;;;;;;;;;;;;7.00;60.06;98806.23;1780357;79;21531;-55
2021/04/08 07:54:29;;;;;;;13.10;9.95;;;;;;;7.43;59.58;98800.60;1764169;79;21151;-58
2021/04/08 07:57:02;;;;;;;15.30;9.85;;;;;;;7.82;58.30;98806.52;1748915;79;21072;-56
2021/04/08 07:59:30;;;;;;;13.65;10.30;;;;;;;8.06;57.50;98800.65;1746121;80;21164;-56
2021/04/08 08:02:08;;;;;;;13.48;10.63;;;;;;;8.37;56.16;98803.89;1770985;79;21426;-57
2021/04/08 08:04:35;;;;;;;16.37;11.22;;;;;;;8.59;54.38;98799.13;1757305;79;21571;-55
2021/04/08 08:07:03;;;;;;;12.45;9.30;;;;;;;8.69;54.43;98806.36;1763195;79;21368;-55
2021/04/08 08:09:31;;;;;;;12.15;9.08;;;;;;;8.91;54.72;98804.75;1732708;80;21668;-55
2021/04/08 08:12:12;;;;;;;13.75;10.63;;;;;;;9.35;54.00;98806.24;1754162;79;21215;-58
2021/04/08 08:14:42;;;;;;;14.10;10.25;;;;;;;9.59;52.62;98797.58;1739010;80;21075;-56
2021/04/08 08:17:14;;;;;;;11.80;10.20;;;;;;;9.57;51.79;98803.55;1765741;79;21108;-55
2021/04/08 08:19:45;;;;;;;10.98;9.88;;;;;;;9.49;51.85;98803.61;1773661;79;21440;-55
2021/04/08 08:22:23;;;;;;;13.75;10.20;;;;;;;9.50;51.76;98801.30;1761108;80;21160;-56
2021/04/08 08:24:54;;;;;;;10.23;9.18;;;;;;;9.43;51.25;98807.50;1773464;79;21089;-59
2021/04/08 08:27:47;;;;;;;14.23;10.32;;;;;;;9.23;51.67;98809.31;1765938;79;21097;-55
2021/04/08 08:30:26;;;;;;;13.03;10.72;;;;;;;9.09;52.14;98812.75;1774265;79;21207;-55
2021/04/08 08:33:11;;;;;;;12.47;9.95;;;;;;;9.14;52.38;98812.22;1766339;79;21369;-55
2021/04/08 08:35:38;;;;;;;11.95;9.08;;;;;;;9.29;52.35;98810.43;1743095;80;21559;-57
2021/04/08 08:38:17;;;;;;;11.93;9.55;;;;;;;9.75;50.99;98805.89;1720366;80;21182;-54
2021/04/08 08:40:46;;;;;;;11.43;8.50;;;;;;;9.98;49.49;98801.83;1760575;80;21125;-54
2021/04/08 08:43:17;;;;;;;12.95;8.63;;;;;;;10.16;49.53;98803.64;1772378;79;21121;-56
2021/04/08 08:45:45;;;;;;;9.85;8.63;;;;;;;10.42;48.43;98805.33;1759421;80;22446;-56
2021/04/08 08:48:18;;;;;;;11.48;8.65;;;;;;;10.57;47.76;98803.46;1729644;81;21139;-56
2021/04/08 08:50:49;;;;;;;9.90;8.90;;;;;;;10.51;46.94;98808.19;1769908;79;21069;-55
2021/04/08 08:53:17;;;;;;;9.88;8.95;;;;;;;10.35;46.78;98809.74;1746608;79;21558;-55
2021/04/08 08:55:45;;;;;;;8.98;8.08;;;;;;;10.08;47.29;98806.36;1744459;79;21117;-56
2021/04/08 08:58:13;;;;;;;11.63;8.70;;;;;;;10.04;47.35;98803.77;1743668;79;21953;-58
2021/04/08 09:00:41;;;;;;;8.98;8.10;;;;;;;10.16;47.12;98797.00;1751943;79;21132;-55
2021/04/08 09:03:11;;;;;;;11.03;9.10;;;;;;;10.54;47.03;98807.82;1746818;79;21164;-55
2021/04/08 09:05:39;;;;;;;9.45;7.78;;;;;;;10.84;45.36;98792.62;1772996;79;21121;-58
2021/04/08 09:08:12;;;;;;;10.38;7.92;;;;;;;10.94;45.20;98807.77;1757171;79;21093;-55
2021/04/08 09:10:41;;;;;;;8.33;7.17;;;;;;;10.90;45.13;98803.33;1750518;79;22357;-55
2021/04/08 09:13:11;;;;;;;9.40;6.87;;;;;;;10.79;43.93;98809.16;1747472;79;21109;-55
2021/04/08 09:15:39;;;;;;;7.12;6.08;;;;;;;10.70;44.07;98813.42;1748972;80;20946;-55
2021/04/08 09:18:08;;;;;;;8.83;5.53;;;;;;;10.67;42.12;98803.16;1753979;79;21204;-55
2021/04/08 09:20:37;;;;;;;11.50;5.47;;;;;;;10.38;42.02;98812.00;1745443;79;21171;-55
2021/04/08 09:23:08;;;;;;;9.68;6.97;;;;;;;10.36;42.85;98816.19;1749557;79;21368;-56
2021/04/08 09:25:40;;;;;;;9.63;7.62;;;;;;;10.50;43.37;98815.86;1743327;79;21210;-57
2021/04/08 09:28:12;;;;;;;9.35;7.40;;;;;;;10.64;43.38;98820.31;1798942;79;21117;-59
2021/04/08 09:33:46;;;;;;;9.35;6.55;;;;;;;10.03;42.31;98821.53;1763925;79;21215;-58
2021/04/08 09:36:24;;;;;;;13.50;7.15;;;;;;;9.57;43.50;98816.82;1742921;80;21557;-56
2021/04/08 09:39:03;;;;;;;10.25;7.25;;;;;;;9.43;44.35;98823.44;1749250;80;21179;-56
2021/04/08 09:41:52;;;;;;;9.13;6.40;;;;;;;9.30;42.63;98811.59;1762835;79;21163;-56
2021/04/08 09:44:20;;;;;;;12.73;7.65;;;;;;;9.03;41.86;98813.94;1754999;80;21155;-57
2021/04/08 09:46:54;;;;;;;19.02;7.58;;;;;;;8.86;41.99;98817.72;1772990;79;21338;-58
2021/04/08 09:49:42;;;;;;;10.60;7.17;;;;;;;8.80;41.64;98821.05;1757380;79;21389;-56
2021/04/08 09:52:19;;;;;;;13.83;6.22;;;;;;;8.63;41.70;98818.98;1838806;76;22825;-56
2021/04/08 09:54:57;;;;;;;8.35;6.70;;;;;;;8.47;42.10;98829.16;1742910;80;21250;-56
2021/04/08 09:57:37;;;;;;;12.63;7.35;;;;;;;8.32;42.39;98826.91;1743177;81;21378;-57
2021/04/08 10:00:09;;;;;;;10.60;6.55;;;;;;;8.40;43.16;98818.94;1762228;81;21087;-57
2021/04/08 10:03:00;;;;;;;9.88;7.72;;;;;;;8.60;42.82;98824.12;1762351;81;21022;-57
2021/04/08 10:05:31;;;;;;;6.47;4.78;;;;;;;8.78;42.50;98831.02;1760345;80;21135;-59
2021/04/08 10:08:02;;;;;;;6.03;4.22;;;;;;;8.85;42.03;98846.55;1773766;80;20933;-57
2021/04/08 10:10:41;;;;;;;8.35;4.03;;;;;;;8.77;42.85;98853.22;1732970;80;21056;-60
2021/04/08 10:13:26;;;;;;;13.58;4.00;;;;;;;8.59;43.70;98864.09;1728936;80;20921;-60
2021/04/08 10:15:59;;;;;;;6.67;4.17;;;;;;;8.37;44.28;98870.95;1749989;80;21081;-56
2021/04/08 10:18:29;;;;;;;4.08;3.58;;;;;;;8.08;45.16;98859.58;1757588;79;21073;-56
2021/04/08 10:21:02;;;;;;;4.45;4.05;;;;;;;7.89;45.74;98858.64;1738864;79;21069;-57
2021/04/08 10:23:41;;;;;;;4.80;4.28;;;;;;;7.75;46.66;98858.48;1767082;79;21381;-56
2021/04/08 10:26:22;;;;;;;6.10;5.00;;;;;;;7.71;47.04;98854.03;1815055;78;23307;-57
2021/04/08 10:28:54;;;;;;;8.23;6.40;;;;;;;7.63;47.32;98855.86;1784530;79;20969;-57
2021/04/08 10:31:35;;;;;;;8.50;5.45;;;;;;;7.59;47.52;98859.81;1784043;79;21326;-57
2021/04/08 10:36:57;;;;;;;10.68;8.30;;;;;;;7.48;46.99;98855.19;1822666;78;23148;-59
2021/04/08 10:39:34;;;;;;;9.20;6.72;;;;;;;7.38;47.75;98864.28;1788121;79;21029;-57
2021/04/08 10:42:10;;;;;;;6.95;5.08;;;;;;;7.39;46.44;98858.00;1770845;79;21322;-57
2021/04/08 10:44:40;;;;;;;5.58;3.83;;;;;;;7.54;45.07;98863.45;1773660;79;21618;-57
2021/04/08 10:47:12;;;;;;;7.92;4.25;;;;;;;7.81;43.15;98849.38;1793745;79;21032;-56
2021/04/08 10:49:57;;;;;;;4.58;3.80;;;;;;;8.18;40.90;98842.68;1769708;79;21005;-57
2021/04/08 10:52:32;;;;;;;5.22;3.83;;;;;;;8.56;41.56;98855.98;1784659;79;21565;-56
2021/04/08 10:55:11;;;;;;;5.05;3.65;;;;;;;9.08;40.90;98852.22;1770578;79;21164;-57
2021/04/08 10:57:39;;;;;;;4.95;3.87;;;;;;;9.46;39.15;98853.61;1777807;79;20977;-57
2021/04/08 11:00:29;;;;;;;5.65;3.75;;;;;;;9.62;37.98;98847.65;1772372;79;21071;-57
2021/04/08 11:03:00;;;;;;;5.25;3.65;;;;;;;9.75;37.34;98851.84;1761827;79;21031;-59
2021/04/08 11:05:27;;;;;;;8.08;4.15;;;;;;;9.79;37.06;98847.02;1761255;79;21083;-57
2021/04/08 11:07:58;;;;;;;6.72;4.72;;;;;;;9.87;36.34;98849.09;1759130;81;21196;-58
2021/04/08 11:10:29;;;;;;;7.65;4.10;;;;;;;9.86;36.66;98847.93;1761634;81;21171;-57
2021/04/08 11:12:58;;;;;;;11.57;3.85;;;;;;;9.83;37.10;98856.25;1754869;79;21558;-58
2021/04/08 11:15:30;;;;;;;7.83;4.17;;;;;;;9.81;35.63;98855.13;1742277;79;21517;-56
2021/04/08 11:18:12;;;;;;;7.95;3.70;;;;;;;9.69;35.94;98867.19;1742436;79;21151;-58
2021/04/08 11:20:46;;;;;;;3.90;3.30;;;;;;;9.61;36.15;98859.30;1751176;81;21374;-55
2021/04/08 11:23:20;;;;;;;9.58;3.50;;;;;;;9.54;36.65;98862.84;1757488;79;21130;-58
2021/04/08 11:26:05;;;;;;;5.05;3.52;;;;;;;9.47;36.77;98869.35;1761781;79;20940;-59
2021/04/08 11:28:32;;;;;;;4.83;3.17;;;;;;;9.40;36.78;98864.44;1761873;79;20996;-57
2021/04/08 11:31:15;;;;;;;4.90;3.40;;;;;;;9.36;36.52;98864.45;1762025;79;21059;-57
2021/04/08 11:33:57;;;;;;;4.33;3.50;;;;;;;9.35;36.42;98867.30;1822807;78;22763;-56
2021/04/08 11:36:27;;;;;;;10.28;4.53;;;;;;;9.23;36.92;98874.83;1775788;79;20949;-61
2021/04/08 11:38:56;;;;;;;6.00;4.12;;;;;;;9.02;36.59;98876.78;1776999;79;21332;-57
2021/04/08 11:41:28;;;;;;;11.00;5.50;;;;;;;8.68;37.03;98887.73;1763568;79;21064;-57
2021/04/08 11:43:56;;;;;;;6.85;5.20;;;;;;;8.54;38.07;98888.97;1785125;79;21023;-59
2021/04/08 11:46:35;;;;;;;6.37;4.75;;;;;;;8.60;37.13;98878.48;1781136;79;21175;-59
2021/04/08 11:49:18;;;;;;;11.60;5.03;;;;;;;8.65;37.53;98889.92;1777017;79;21569;-60
2021/04/08 11:51:48;;;;;;;4.78;3.47;;;;;;;8.77;37.84;98896.48;1777493;79;22293;-60
2021/04/08 11:54:17;;;;;;;8.83;3.40;;;;;;;8.91;39.21;98912.18;1789765;79;21048;-58